Time;durP1;ratioP1;P1;durP2;ratioP2;P2;SDS_P1;SDS_P2;PMS_P1;PMS_P2;Temp;Humidity;BMP_temperature;BMP_pressure;BME280_temperature;BME280_humidity;BME280_pressure;Samples;Min_cycle;Max_cycle;Signal;HPM_P1;HPM_P2
2022/01/19 00:01:41;;;;;;;21.00;8.40;;;6.00;99.90;;;3.13;100.00;102202.97;5878431;24;20077;-93
2022/01/19 00:57:26;;;;;;;;;;;;;;;;;;;;;
2022/01/19 01:00:29;;;;;;;28.38;11.52;;;4.90;99.90;;;2.16;100.00;102070.88;6136705;23;20092;-94
2022/01/19 02:53:49;;;;;;;15.07;8.00;;;4.20;99.90;;;2.33;100.00;101952.53;6076959;23;20082;-95
2022/01/19 02:56:33;;;;;;;;;;;;;;;;;;;;;
2022/01/19 02:59:18;;;;;;;15.73;8.00;;;4.40;99.90;;;2.76;100.00;101934.63;6070764;23;20021;-94
2022/01/19 03:09:43;;;;;;;13.40;7.47;;;4.70;99.90;;;3.03;100.00;101897.91;6040445;23;20059;-94
2022/01/19 03:12:45;;;;;;;14.52;8.43;;;4.80;99.90;;;3.11;100.00;101890.16;6096331;23;20109;-93
2022/01/19 03:19:16;;;;;;;11.50;7.43;;;5.00;99.90;;;3.32;100.00;101870.88;6069412;23;20023;-93
2022/01/19 03:22:56;;;;;;;13.23;7.70;;;5.00;99.90;;;3.36;100.00;101871.53;6007920;23;20102;-93
2022/01/19 03:25:43;;;;;;;12.55;7.07;;;5.10;99.90;;;3.44;100.00;101879.94;6116685;23;20022;-94
2022/01/19 03:28:40;;;;;;;10.65;7.43;;;5.20;99.90;;;3.48;100.00;101865.28;6070560;23;20022;-92
2022/01/19 03:31:43;;;;;;;12.00;7.30;;;5.20;99.90;;;3.47;100.00;101856.38;5978970;24;20031;-94
2022/01/19 03:34:50;;;;;;;12.40;7.82;;;5.30;99.90;;;3.59;100.00;101849.25;6059550;23;20410;-94
2022/01/19 03:41:44;;;;;;;9.80;7.22;;;5.40;99.90;;;3.71;100.00;101826.00;5941883;23;20102;-94
2022/01/19 03:44:41;;;;;;;10.85;7.32;;;5.40;99.90;;;3.75;100.00;101830.22;5999800;23;20056;-95
2022/01/19 03:47:52;;;;;;;9.70;7.28;;;5.50;99.90;;;3.80;100.00;101816.44;6036185;23;20391;-94
2022/01/19 03:50:57;;;;;;;;;;;;;;;;;;;;;
2022/01/19 03:58:35;;;;;;;;;;;;;;;;;;;;;
2022/01/19 04:06:05;;;;;;;;;;;;;;;;;;;;;
2022/01/19 04:23:01;;;;;;;10.73;8.10;;;5.70;99.90;;;4.07;100.00;101798.31;6142696;23;20112;-85
2022/01/19 04:25:28;;;;;;;10.93;7.35;;;5.80;99.90;;;4.12;100.00;101795.28;6118391;23;20029;-86
2022/01/19 04:27:55;;;;;;;11.48;8.30;;;5.80;99.90;;;4.15;100.00;101795.06;6119494;23;20029;-86
2022/01/19 04:30:27;;;;;;;11.20;8.65;;;5.80;99.90;;;4.16;100.00;101779.75;6119452;23;20028;-85
2022/01/19 04:33:05;;;;;;;12.32;9.27;;;5.80;99.90;;;4.14;100.00;101787.94;6120937;23;20122;-86
2022/01/19 04:35:48;;;;;;;10.63;8.38;;;5.80;99.90;;;4.16;100.00;101785.13;6119553;23;20029;-86
2022/01/19 05:03:50;;;;;;;10.05;6.95;;;6.00;99.90;;;4.26;100.00;101748.47;6146031;23;20372;-86
2022/01/19 05:06:38;;;;;;;12.85;7.22;;;6.00;99.90;;;4.28;100.00;101752.78;6121407;23;20029;-86
2022/01/19 05:09:10;;;;;;;10.75;7.53;;;6.00;99.90;;;4.33;100.00;101748.88;6121304;23;20330;-86
2022/01/19 05:14:24;;;;;;;8.57;6.45;;;6.10;99.90;;;4.25;100.00;101730.59;6145478;23;20365;-86
2022/01/19 05:16:51;;;;;;;8.25;5.97;;;6.10;99.90;;;4.24;100.00;101732.41;6145545;23;20524;-87
2022/01/19 05:19:18;;;;;;;8.20;5.80;;;6.10;99.90;;;4.17;100.00;101716.78;6121330;23;20053;-87
2022/01/19 05:21:47;;;;;;;9.43;5.75;;;6.10;99.90;;;4.26;100.00;101711.59;6121138;23;20029;-87
2022/01/19 05:24:14;;;;;;;9.18;5.50;;;6.10;99.90;;;4.21;100.00;101702.16;6122980;23;20033;-87
2022/01/19 05:26:52;;;;;;;8.40;5.72;;;6.10;99.90;;;4.23;100.00;101700.19;6121086;23;20026;-87
2022/01/19 05:29:27;;;;;;;8.02;5.72;;;6.10;99.90;;;4.28;100.00;101698.88;6145860;23;20491;-86
2022/01/19 05:31:54;;;;;;;9.18;6.05;;;6.10;99.90;;;4.27;100.00;101691.75;6121020;23;20029;-87
2022/01/19 05:34:22;;;;;;;8.07;6.30;;;6.10;99.90;;;4.33;100.00;101686.91;6120794;23;20032;-86
2022/01/19 05:36:52;;;;;;;9.10;6.15;;;6.10;99.90;;;4.33;100.00;101684.19;6121003;23;20522;-87
2022/01/19 05:39:40;;;;;;;8.98;6.18;;;6.10;99.90;;;4.29;100.00;101686.25;6116850;23;20029;-87
2022/01/19 05:42:16;;;;;;;8.00;6.28;;;6.10;99.90;;;4.29;100.00;101681.72;6120880;23;20026;-87
2022/01/19 05:44:47;;;;;;;8.50;6.23;;;6.10;99.90;;;4.26;100.00;101679.25;6145276;23;20022;-87
2022/01/19 05:47:16;;;;;;;8.52;6.05;;;6.20;99.90;;;4.35;100.00;101668.78;6170310;23;20017;-86
2022/01/19 05:49:44;;;;;;;10.75;6.32;;;6.10;99.90;;;4.33;100.00;101670.72;6120729;23;20408;-87
2022/01/19 05:52:13;;;;;;;9.15;6.93;;;6.10;99.90;;;4.33;100.00;101658.09;6120338;23;20029;-86
2022/01/19 05:54:41;;;;;;;9.82;6.95;;;6.10;99.90;;;4.35;100.00;101669.63;6120355;23;20036;-86
2022/01/19 05:57:08;;;;;;;8.75;6.68;;;6.10;99.90;;;4.31;100.00;101670.84;6122276;23;20097;-87
2022/01/19 05:59:43;;;;;;;10.65;6.97;;;6.20;99.90;;;4.30;100.00;101656.50;6122372;23;20471;-87
2022/01/19 06:02:11;;;;;;;10.23;7.30;;;6.20;99.90;;;4.27;100.00;101654.03;6120260;23;20030;-87
2022/01/19 06:04:38;;;;;;;11.15;6.75;;;6.20;99.90;;;4.37;100.00;101642.56;6120594;23;20029;-86
2022/01/19 06:07:28;;;;;;;9.25;7.18;;;6.20;99.90;;;4.38;100.00;101644.28;6122508;23;20480;-87
2022/01/19 06:12:57;;;;;;;10.55;7.22;;;6.20;99.90;;;4.49;100.00;101636.22;6122050;23;20025;-86
2022/01/19 06:15:29;;;;;;;9.65;7.43;;;6.20;99.90;;;4.45;100.00;101632.06;6145556;23;20030;-86
2022/01/19 06:17:56;;;;;;;11.07;7.53;;;6.20;99.90;;;4.47;100.00;101630.09;6146360;23;20069;-91
2022/01/19 06:26:13;;;;;;;9.77;7.40;;;6.20;99.90;;;4.26;100.00;101628.06;6111917;23;20033;-92
2022/01/19 06:28:42;;;;;;;12.55;7.93;;;6.30;99.90;;;4.23;100.00;101625.59;6151206;23;20116;-91
2022/01/19 06:31:22;;;;;;;;;;;6.10;99.90;;;4.28;100.00;101618.03;6134216;23;20041;-94
2022/01/19 06:41:35;;;;;;;13.25;7.75;;;6.20;99.90;;;4.32;100.00;101634.81;6030827;23;20038;-93
2022/01/19 06:44:41;;;;;;;11.15;7.28;;;6.30;99.90;;;4.34;100.00;101642.78;6008677;23;20418;-95
2022/01/19 06:47:13;;;;;;;8.60;6.55;;;6.20;99.90;;;4.31;100.00;101625.03;6008984;23;20027;-93
2022/01/19 06:58:27;;;;;;;8.95;6.60;;;6.20;99.90;;;4.24;100.00;101640.78;6121296;23;20093;-88
2022/01/19 07:01:17;;;;;;;10.88;6.90;;;6.20;99.90;;;4.23;100.00;101646.31;6122986;23;20031;-88
2022/01/19 07:04:07;;;;;;;9.40;7.20;;;6.20;99.90;;;4.23;100.00;101630.16;6117583;23;20126;-89
2022/01/19 07:06:37;;;;;;;10.23;7.47;;;6.20;99.90;;;4.21;100.00;101643.72;6118173;23;20097;-90
2022/01/19 07:09:18;;;;;;;9.65;7.10;;;6.20;99.90;;;4.24;100.00;101640.78;6119293;23;20353;-89
2022/01/19 07:11:52;;;;;;;12.30;8.05;;;6.20;99.90;;;4.18;100.00;101627.78;6145157;23;20096;-89
2022/01/19 07:14:21;;;;;;;10.85;7.18;;;6.20;99.90;;;4.14;100.00;101629.00;6120123;23;20551;-89
2022/01/19 07:16:50;;;;;;;;;;;6.20;99.90;;;4.16;100.00;101621.66;6120339;23;20026;-89
2022/01/19 07:19:19;;;;;;;11.32;6.95;;;6.20;99.90;;;4.19;100.00;101618.75;6120071;23;20000;-91
2022/01/19 07:21:49;;;;;;;10.90;7.10;;;6.20;99.90;;;4.19;100.00;101613.34;6145456;23;20527;-89
2022/01/19 07:24:16;;;;;;;10.82;7.43;;;6.20;99.90;;;4.14;100.00;101620.91;6145202;23;20045;-90
2022/01/19 07:26:45;;;;;;;10.68;7.53;;;6.20;99.90;;;4.09;100.00;101612.31;6121096;23;20030;-89
2022/01/19 07:29:38;;;;;;;10.10;7.03;;;6.20;99.90;;;4.21;100.00;101615.94;6143513;23;20048;-89
2022/01/19 07:32:23;;;;;;;19.33;10.80;;;6.20;99.90;;;4.21;100.00;101597.06;6112258;23;20171;-89
2022/01/19 07:35:08;;;;;;;16.15;10.98;;;6.20;99.90;;;4.09;100.00;101585.38;6119770;23;20021;-89
2022/01/19 07:37:39;;;;;;;17.92;10.90;;;6.20;99.90;;;4.07;100.00;101587.31;6119026;23;20017;-88
2022/01/19 07:40:11;;;;;;;19.50;12.13;;;6.20;99.90;;;4.11;100.00;101591.50;6144174;23;20025;-89
2022/01/19 07:43:07;;;;;;;17.77;11.18;;;6.10;99.90;;;4.16;100.00;101585.78;6144312;23;20457;-88
2022/01/19 07:45:53;;;;;;;17.38;12.80;;;6.10;99.90;;;3.98;100.00;101577.22;6121332;23;20116;-89
2022/01/19 07:52:43;;;;;;;22.77;13.43;;;6.20;99.90;;;3.98;100.00;101566.47;6121469;23;20141;-87
2022/01/19 07:55:39;;;;;;;19.30;12.48;;;6.20;99.90;;;3.98;100.00;101566.47;5949915;23;20028;-87
2022/01/19 07:58:25;;;;;;;18.75;12.60;;;6.10;99.90;;;4.02;100.00;101574.22;6119961;23;20037;-87
2022/01/19 08:01:31;;;;;;;;;;;;;;;;;;;;;
2022/01/19 08:04:14;;;;;;;20.13;12.95;;;6.10;99.90;;;3.96;100.00;101563.03;6116426;23;20033;-89
2022/01/19 08:07:00;;;;;;;23.88;13.93;;;6.10;99.90;;;3.96;100.00;101565.72;6141905;23;20348;-89
2022/01/19 08:09:40;;;;;;;19.98;12.85;;;6.10;99.90;;;3.96;100.00;101542.38;6103073;23;20034;-87
2022/01/19 08:12:12;;;;;;;19.80;12.50;;;6.10;99.90;;;3.87;100.00;101543.06;6120083;23;20033;-91
2022/01/19 08:15:01;;;;;;;22.98;13.85;;;6.10;99.90;;;3.91;100.00;101552.63;6127625;23;20022;-94
2022/01/19 08:17:57;;;;;;;21.42;12.45;;;6.10;99.90;;;3.90;100.00;101551.75;6127384;23;20022;-94
2022/01/19 08:20:27;;;;;;;22.98;14.20;;;6.10;99.90;;;3.95;100.00;101553.25;6121343;23;20026;-89
2022/01/19 08:22:54;;;;;;;18.48;12.52;;;6.10;99.90;;;3.91;100.00;101550.78;6120952;23;20811;-88
2022/01/19 08:25:40;;;;;;;21.33;13.13;;;6.00;99.90;;;3.92;100.00;101565.09;6120793;23;20026;-89
2022/01/19 08:28:11;;;;;;;19.63;12.80;;;6.10;99.90;;;3.87;100.00;101554.69;6122362;23;20026;-93
2022/01/19 08:49:46;;;;;;;22.45;14.77;;;6.00;99.90;;;4.03;100.00;101575.06;6081066;23;20018;-91
2022/01/19 08:52:32;;;;;;;23.33;15.48;;;6.00;99.90;;;4.02;100.00;101568.81;6128662;23;20379;-92
2022/01/19 08:55:14;;;;;;;23.83;15.43;;;6.00;99.90;;;4.09;100.00;101569.19;6126056;23;20031;-89
2022/01/19 08:57:46;;;;;;;30.95;16.05;;;6.00;99.90;;;4.09;100.00;101553.94;6157414;23;20256;-93
2022/01/19 09:00:19;;;;;;;25.20;16.00;;;6.00;99.90;;;4.14;100.00;101548.16;6139777;23;20091;-90
2022/01/19 09:02:55;;;;;;;27.58;16.05;;;6.00;99.90;;;4.10;100.00;101534.06;6184207;23;20021;-92
2022/01/19 09:05:28;;;;;;;25.08;16.23;;;6.00;99.90;;;4.10;100.00;101525.16;6163032;23;20018;-92
2022/01/19 09:07:57;;;;;;;23.33;16.08;;;6.00;99.90;;;4.05;100.00;101521.94;6159993;23;20021;-92
2022/01/19 09:10:39;;;;;;;;;;;;;;;;;;;;;
2022/01/19 09:13:13;;;;;;;26.13;16.30;;;6.10;99.90;;;3.89;100.00;101508.78;6134297;23;20021;-94
2022/01/19 09:15:41;;;;;;;25.55;16.77;;;6.10;99.90;;;4.02;100.00;101516.81;6159952;23;20045;-92
2022/01/19 09:18:10;;;;;;;24.85;16.45;;;6.10;99.90;;;4.02;100.00;101520.34;6156346;23;20056;-91
2022/01/19 09:20:38;;;;;;;23.30;15.88;;;6.10;99.90;;;4.01;100.00;101523.16;6186128;23;20022;-92
2022/01/19 09:23:06;;;;;;;25.55;16.48;;;6.10;99.90;;;3.94;100.00;101517.38;6166442;23;20022;-90
2022/01/19 09:25:34;;;;;;;27.35;16.25;;;6.20;99.90;;;3.98;100.00;101513.47;6165397;23;20042;-91
2022/01/19 09:28:02;;;;;;;26.73;17.15;;;6.10;99.90;;;3.97;100.00;101510.91;6167951;23;20021;-90
2022/01/19 09:30:32;;;;;;;23.67;15.10;;;6.10;99.90;;;3.96;100.00;101503.78;6141514;23;20013;-91
2022/01/19 09:33:11;;;;;;;26.42;16.65;;;6.10;99.90;;;3.94;100.00;101511.13;6136929;23;20021;-91
2022/01/19 09:36:05;;;;;;;26.10;17.23;;;6.10;99.90;;;3.94;100.00;101479.69;6157578;23;20017;-91
2022/01/19 09:38:39;;;;;;;26.05;16.23;;;6.10;99.90;;;4.04;100.00;101490.59;6130668;23;20407;-93
2022/01/19 09:41:35;;;;;;;30.50;17.00;;;6.10;99.90;;;4.03;100.00;101475.41;6158025;23;20018;-92
2022/01/19 09:45:13;;;;;;;26.35;16.77;;;6.10;99.90;;;4.01;100.00;101463.91;6163783;23;20040;-92
2022/01/19 10:03:59;;;;;;;27.90;17.45;;;6.10;99.90;;;4.02;100.00;101458.41;6120345;23;20481;-92
2022/01/19 10:06:26;;;;;;;27.50;17.15;;;6.20;99.90;;;4.11;100.00;101446.03;6121757;23;20439;-91
2022/01/19 10:08:56;;;;;;;27.95;16.80;;;6.20;99.90;;;4.16;100.00;101441.16;6120556;23;20026;-93
2022/01/19 10:16:58;;;;;;;30.55;18.00;;;6.20;99.90;;;4.24;100.00;101440.53;6134657;23;20028;-92
2022/01/19 10:17:07;;;;;;;27.98;17.70;;;6.20;99.90;;;4.07;100.00;101420.31;6151349;23;20460;-93
2022/01/19 10:19:37;;;;;;;27.92;17.85;;;6.30;99.90;;;4.09;100.00;101418.34;6150330;23;20443;-90
2022/01/19 10:22:12;;;;;;;28.77;17.77;;;6.30;99.90;;;4.22;100.00;101408.31;6150926;23;20025;-91
2022/01/19 10:24:50;;;;;;;25.75;17.33;;;6.20;99.90;;;4.21;100.00;101425.50;6087771;23;20026;-83
2022/01/19 10:27:33;;;;;;;28.33;16.83;;;6.30;99.90;;;4.16;100.00;101419.59;6092341;23;20014;-83
2022/01/19 10:30:25;;;;;;;25.88;16.48;;;6.30;99.90;;;4.21;100.00;101413.88;6091994;23;20070;-84
2022/01/19 10:32:56;;;;;;;28.17;17.13;;;6.30;99.90;;;4.25;100.00;101410.78;6093264;23;20022;-83
2022/01/19 10:35:29;;;;;;;25.98;16.60;;;6.30;99.90;;;4.34;100.00;101411.03;6119918;23;20426;-83
2022/01/19 10:38:20;;;;;;;23.70;16.17;;;6.30;99.90;;;4.37;100.00;101410.81;6143822;23;20029;-83
2022/01/19 10:41:16;;;;;;;28.45;16.25;;;6.30;99.90;;;4.31;100.00;101410.31;6121853;23;20018;-82
2022/01/19 10:43:48;;;;;;;25.77;16.60;;;6.30;99.90;;;4.29;100.00;101416.81;6119237;23;20081;-83
2022/01/19 10:46:33;;;;;;;26.48;16.95;;;6.30;99.90;;;4.30;100.00;101411.28;6121403;23;20475;-84
2022/01/19 10:49:04;;;;;;;29.92;16.95;;;6.30;99.90;;;4.42;100.00;101408.59;6121102;23;20065;-85
2022/01/19 10:51:37;;;;;;;27.35;17.08;;;6.30;99.90;;;4.33;100.00;101401.25;6120272;23;20089;-82
2022/01/19 10:54:12;;;;;;;25.63;15.90;;;6.40;99.90;;;4.30;100.00;101405.91;6120520;23;20484;-87
2022/01/19 10:56:42;;;;;;;24.48;16.00;;;6.40;99.90;;;4.33;100.00;101394.00;6144793;23;20421;-87
2022/01/19 10:59:13;;;;;;;28.80;17.13;;;6.40;99.90;;;4.41;100.00;101385.31;6144067;23;20022;-87
2022/01/19 11:01:46;;;;;;;26.20;17.40;;;6.40;99.90;;;4.37;100.00;101389.25;6169319;23;20445;-87
2022/01/19 11:04:29;;;;;;;27.23;16.23;;;6.40;99.90;;;4.38;100.00;101391.81;6168580;23;20029;-87
2022/01/19 11:07:01;;;;;;;28.20;16.80;;;6.40;99.90;;;4.44;100.00;101382.38;6120473;23;20051;-87
2022/01/19 11:09:29;;;;;;;26.15;16.65;;;6.50;99.90;;;4.47;100.00;101377.59;6169002;23;20057;-87
2022/01/19 11:12:02;;;;;;;23.85;15.98;;;6.50;99.90;;;4.39;100.00;101376.50;6120592;23;20076;-87
2022/01/19 11:14:30;;;;;;;25.17;16.65;;;6.50;99.90;;;4.47;100.00;101369.53;6121164;23;20077;-87
2022/01/19 11:16:59;;;;;;;27.30;16.67;;;6.50;99.90;;;4.51;100.00;101364.72;6121317;23;20017;-87
2022/01/19 11:19:26;;;;;;;28.20;17.17;;;6.50;99.90;;;4.55;100.00;101350.03;6121164;23;20014;-87
2022/01/19 11:22:14;;;;;;;28.55;17.17;;;6.50;99.90;;;4.53;100.00;101351.97;6121347;23;20026;-87
2022/01/19 11:25:13;;;;;;;25.98;16.20;;;6.50;99.90;;;4.50;100.00;101363.00;6118849;23;20056;-87
2022/01/19 11:27:43;;;;;;;27.00;16.92;;;6.50;99.90;;;4.44;100.00;101360.81;6168797;23;20081;-87
2022/01/19 11:30:19;;;;;;;25.65;16.70;;;6.50;99.90;;;4.47;100.00;101345.25;6119739;23;20049;-87
2022/01/19 11:33:24;;;;;;;23.98;16.35;;;6.50;99.90;;;4.52;100.00;101333.25;6119875;23;20022;-88
2022/01/19 11:35:55;;;;;;;25.40;16.52;;;6.50;99.90;;;4.56;100.00;101321.22;6121251;23;20053;-87
2022/01/19 11:38:36;;;;;;;24.02;16.30;;;6.50;99.90;;;4.63;100.00;101308.97;6168761;23;20026;-87
2022/01/19 11:41:20;;;;;;;25.48;15.80;;;6.60;99.90;;;4.64;100.00;101306.13;6121671;23;20049;-87
2022/01/19 11:43:53;;;;;;;28.85;16.58;;;6.60;99.90;;;4.63;100.00;101293.63;6167647;23;20109;-87
2022/01/19 11:46:31;;;;;;;26.60;16.73;;;6.60;99.90;;;4.63;100.00;101288.25;6121081;23;20048;-86
2022/01/19 11:49:01;;;;;;;28.80;17.27;;;6.60;99.90;;;4.61;100.00;101289.38;6120727;23;20445;-87
2022/01/19 11:51:31;;;;;;;26.50;17.05;;;6.60;99.90;;;4.66;100.00;101288.00;6123203;23;20026;-88
2022/01/19 11:54:13;;;;;;;24.65;16.15;;;6.60;99.90;;;4.62;100.00;101294.59;6121093;23;20033;-87
2022/01/19 11:57:14;;;;;;;27.52;17.35;;;6.70;99.90;;;4.63;100.00;101293.63;6146196;23;20030;-81
2022/01/19 12:00:18;;;;;;;27.75;17.15;;;6.70;99.90;;;4.73;100.00;101282.09;6145897;23;20073;-89
2022/01/19 12:03:00;;;;;;;24.92;17.02;;;6.70;99.90;;;4.65;100.00;101278.19;6121645;23;20072;-90
2022/01/19 12:05:39;;;;;;;27.05;16.98;;;6.70;99.90;;;4.72;100.00;101281.22;6121257;23;20445;-89
2022/01/19 12:08:27;;;;;;;27.40;18.15;;;6.70;99.90;;;4.61;100.00;101265.94;6170474;23;20021;-89
2022/01/19 12:10:58;;;;;;;28.05;17.33;;;6.70;99.90;;;4.52;100.00;101250.53;6121230;23;20368;-88
2022/01/19 12:16:55;;;;;;;27.85;17.05;;;6.60;99.90;;;4.55;100.00;101236.81;6170764;23;20449;-86
2022/01/19 12:19:27;;;;;;;26.80;16.05;;;6.60;99.90;;;4.51;100.00;101238.03;6121955;23;20022;-86
2022/01/19 12:22:05;;;;;;;25.70;15.90;;;6.60;99.90;;;4.56;100.00;101241.22;6121332;23;20061;-85
2022/01/19 12:24:37;;;;;;;25.75;17.92;;;6.60;99.90;;;4.51;100.00;101240.72;6146687;23;20026;-85
2022/01/19 12:27:23;;;;;;;29.98;16.77;;;6.60;99.90;;;4.51;100.00;101229.94;6175379;23;20109;-86
2022/01/19 12:29:55;;;;;;;26.67;17.48;;;6.60;99.90;;;4.49;100.00;101223.81;6152280;23;20025;-86
2022/01/19 12:32:49;;;;;;;25.83;16.33;;;6.60;99.90;;;4.46;100.00;101221.41;6150894;23;20373;-86
2022/01/19 12:35:35;;;;;;;25.30;16.92;;;6.60;99.90;;;4.50;100.00;101212.91;6150366;23;20075;-85
2022/01/19 12:38:08;;;;;;;25.90;16.42;;;6.60;99.90;;;4.56;100.00;101211.56;6151423;23;20025;-85
2022/01/19 12:40:46;;;;;;;26.20;17.15;;;6.50;99.90;;;4.49;100.00;101204.97;6174201;23;20053;-86
2022/01/19 12:43:38;;;;;;;25.40;15.82;;;6.50;99.90;;;4.46;100.00;101213.31;6150464;23;20033;-85
2022/01/19 12:46:10;;;;;;;23.35;16.08;;;6.50;99.90;;;4.41;100.00;101211.00;6149779;23;20026;-85
2022/01/19 12:48:49;;;;;;;24.73;16.25;;;6.50;99.90;;;4.41;100.00;101202.06;6149601;23;20029;-85
2022/01/19 12:51:40;;;;;;;23.55;15.68;;;6.50;99.90;;;4.50;100.00;101201.28;6151730;23;20025;-85
2022/01/19 12:54:12;;;;;;;26.73;17.20;;;6.50;99.90;;;4.44;100.00;101202.66;6150720;23;20022;-86
2022/01/19 12:56:52;;;;;;;23.10;16.55;;;6.50;99.90;;;4.40;100.00;101197.63;6151084;23;20022;-85
2022/01/19 12:59:20;;;;;;;23.98;16.45;;;6.50;99.90;;;4.39;100.00;101182.47;6197863;23;20091;-86
2022/01/19 13:01:48;;;;;;;24.77;16.83;;;6.50;99.90;;;4.41;100.00;101172.41;6151973;23;20049;-85
2022/01/19 13:04:28;;;;;;;26.52;17.02;;;6.50;99.90;;;4.37;100.00;101163.72;6150792;23;20032;-85
2022/01/19 13:06:57;;;;;;;28.45;17.83;;;6.50;99.90;;;4.43;100.00;101156.97;6152056;23;20072;-86
2022/01/19 13:09:32;;;;;;;25.65;17.55;;;6.50;99.90;;;4.40;100.00;101174.25;6149244;23;20029;-85
2022/01/19 13:12:10;;;;;;;25.73;16.50;;;6.50;99.90;;;4.42;100.00;101176.84;6151447;23;20076;-86
2022/01/19 13:14:37;;;;;;;25.88;18.13;;;6.50;99.90;;;4.46;100.00;101173.75;6151387;23;20072;-85
2022/01/19 13:17:05;;;;;;;26.67;18.38;;;6.50;99.90;;;4.41;100.00;101164.34;6151980;23;20041;-85
2022/01/19 13:19:32;;;;;;;25.70;17.25;;;6.50;99.90;;;4.42;100.00;101161.50;6151313;23;20028;-85
2022/01/19 13:22:03;;;;;;;27.17;18.38;;;6.50;99.90;;;4.48;100.00;101149.38;6151541;23;20014;-86
2022/01/19 13:24:36;;;;;;;26.48;17.30;;;6.50;99.90;;;4.43;100.00;101147.03;6150687;23;20024;-85
2022/01/19 13:27:06;;;;;;;26.02;17.58;;;6.50;99.90;;;4.45;100.00;101145.06;6175151;23;20458;-85
2022/01/19 13:29:37;;;;;;;28.55;18.02;;;6.50;99.90;;;4.36;100.00;101140.47;6199743;23;20035;-85
2022/01/19 13:32:13;;;;;;;26.55;17.75;;;6.50;99.90;;;4.35;100.00;101151.38;6151275;23;20460;-86
2022/01/19 13:34:56;;;;;;;26.67;18.08;;;6.50;99.90;;;4.45;100.00;101149.59;6199459;23;20088;-85
2022/01/19 13:37:30;;;;;;;24.80;17.20;;;6.40;99.90;;;4.45;100.00;101144.22;6173900;23;20025;-86
2022/01/19 13:40:05;;;;;;;30.38;18.52;;;6.40;99.90;;;4.37;100.00;101135.94;6151437;23;20028;-85
2022/01/19 13:42:44;;;;;;;27.60;18.25;;;6.40;99.90;;;4.38;100.00;101127.72;6150839;23;20032;-86
2022/01/19 13:45:19;;;;;;;27.90;18.58;;;6.40;99.90;;;4.47;100.00;101109.91;6150858;23;20022;-85
2022/01/19 13:47:56;;;;;;;28.50;17.85;;;6.50;99.90;;;4.38;100.00;101106.16;6149679;23;20028;-86
2022/01/19 13:50:25;;;;;;;30.65;18.50;;;6.50;99.90;;;4.36;100.00;101097.38;6147362;23;20033;-85
2022/01/19 13:52:52;;;;;;;26.05;17.00;;;6.50;99.90;;;4.42;100.00;101098.69;6147788;23;20079;-86
2022/01/19 13:55:24;;;;;;;29.63;18.83;;;6.40;99.90;;;4.39;100.00;101093.53;6150481;23;20021;-91
2022/01/19 13:57:51;;;;;;;29.55;18.40;;;6.40;99.90;;;4.38;100.00;101084.63;6198907;23;20487;-93
2022/01/19 14:00:21;;;;;;;34.00;17.70;;;6.40;99.90;;;4.37;100.00;101077.50;6175454;23;20072;-93
2022/01/19 14:03:02;;;;;;;30.02;17.73;;;6.40;99.90;;;4.43;100.00;101078.81;6175721;23;20056;-92
2022/01/19 14:05:41;;;;;;;;;;;6.40;99.90;;;4.41;100.00;101080.78;6152405;23;20022;-93
2022/01/19 14:08:10;;;;;;;30.80;17.67;;;6.40;99.90;;;4.34;100.00;101077.78;6151375;23;20415;-94
2022/01/19 14:10:46;;;;;;;28.48;18.77;;;6.40;99.90;;;4.29;100.00;101069.22;6202642;23;20025;-94
2022/01/19 14:13:30;;;;;;;29.80;18.35;;;6.40;99.90;;;4.26;100.00;101075.69;6176658;23;20018;-93
2022/01/19 14:16:18;;;;;;;31.25;19.05;;;6.40;99.90;;;4.30;100.00;101061.00;6200941;23;20022;-93
2022/01/19 14:19:09;;;;;;;27.40;18.35;;;6.40;99.90;;;4.26;100.00;101056.84;6200639;23;20025;-92
2022/01/19 14:22:01;;;;;;;34.15;21.10;;;6.40;99.90;;;4.22;100.00;101047.31;6201833;23;20105;-92
2022/01/19 14:24:30;;;;;;;29.33;19.10;;;6.40;99.90;;;4.22;100.00;101050.00;6150704;23;20033;-88
2022/01/19 14:27:01;;;;;;;31.90;19.17;;;6.40;99.90;;;4.24;100.00;101050.72;6199758;23;20072;-88
2022/01/19 14:29:28;;;;;;;32.00;19.27;;;6.40;99.90;;;4.25;100.00;101051.63;6149495;23;20017;-89
2022/01/19 14:31:59;;;;;;;32.03;19.30;;;6.40;99.90;;;4.35;100.00;101046.28;6199274;23;20100;-90
2022/01/19 14:34:40;;;;;;;31.10;19.50;;;6.40;99.90;;;4.39;100.00;101051.28;6148784;23;20064;-89
2022/01/19 14:37:13;;;;;;;34.28;19.65;;;6.40;99.90;;;4.34;100.00;101049.94;6197889;23;20032;-89
2022/01/19 14:39:55;;;;;;;31.50;19.52;;;6.40;99.90;;;4.29;100.00;101043.13;6198436;23;20025;-88
2022/01/19 14:42:30;;;;;;;34.17;19.30;;;6.40;99.90;;;4.23;100.00;101038.25;6173511;23;20072;-89
2022/01/19 14:45:19;;;;;;;34.10;20.33;;;6.30;99.90;;;4.22;100.00;101017.69;6148380;23;20029;-89
2022/01/19 14:47:47;;;;;;;32.33;19.80;;;6.40;99.90;;;4.22;100.00;101017.69;6197458;23;20025;-89
2022/01/19 14:50:24;;;;;;;34.83;20.80;;;6.30;99.90;;;4.20;100.00;101011.56;6173229;23;20138;-88
2022/01/19 14:52:56;;;;;;;34.35;19.75;;;6.40;99.90;;;4.20;100.00;101014.28;6150184;23;20068;-90
2022/01/19 14:55:26;;;;;;;;;;;6.40;99.90;;;4.20;100.00;101011.56;6198721;23;20333;-89
2022/01/19 14:57:57;;;;;;;36.40;21.57;;;6.40;99.90;;;4.25;100.00;101012.03;6148478;23;19924;-91
2022/01/19 15:00:29;;;;;;;36.70;21.48;;;6.40;99.90;;;4.23;100.00;101015.88;6198815;23;20055;-88
2022/01/19 15:03:00;;;;;;;40.38;22.92;;;6.40;99.90;;;4.24;100.00;101012.16;6170897;23;20025;-89
2022/01/19 15:05:28;;;;;;;39.25;23.33;;;6.40;99.90;;;4.23;100.00;101010.47;6173418;23;20025;-88
2022/01/19 15:07:55;;;;;;;39.42;22.73;;;6.30;99.90;;;4.27;100.00;101006.53;6148861;23;20056;-88
2022/01/19 15:10:24;;;;;;;40.65;24.02;;;6.40;99.90;;;4.15;100.00;101008.44;6148705;23;20530;-88
2022/01/19 15:12:53;;;;;;;41.92;24.33;;;6.30;99.90;;;4.23;100.00;101010.47;6149129;23;20041;-89
2022/01/19 15:15:25;;;;;;;42.13;25.42;;;6.30;99.90;;;4.16;100.00;101015.53;6173558;23;20055;-88
2022/01/19 15:17:54;;;;;;;45.40;24.92;;;6.30;99.90;;;4.07;100.00;101003.72;6197195;23;20060;-88
2022/01/19 15:20:22;;;;;;;45.13;25.83;;;6.30;99.90;;;4.16;100.00;101002.06;6198248;23;20041;-91
2022/01/19 15:22:49;;;;;;;43.53;25.27;;;6.30;99.90;;;4.06;100.00;100993.06;6149050;23;20025;-90
2022/01/19 15:25:17;;;;;;;41.38;25.38;;;6.30;99.90;;;4.06;100.00;100998.44;6198379;23;20080;-88
2022/01/19 15:27:45;;;;;;;52.15;27.40;;;6.30;99.90;;;4.04;100.00;100995.88;6197575;23;20021;-88
2022/01/19 15:30:13;;;;;;;44.70;25.70;;;6.30;99.90;;;4.06;100.00;100993.91;6198750;23;20035;-88
2022/01/19 15:32:43;;;;;;;42.17;25.30;;;6.30;99.90;;;4.14;100.00;100989.72;6198381;23;20029;-88
2022/01/19 15:35:11;;;;;;;39.88;24.70;;;6.20;99.90;;;4.20;100.00;100984.63;6196652;23;20032;-88
2022/01/19 15:37:39;;;;;;;42.47;25.73;;;6.20;99.90;;;4.18;100.00;100983.91;6147442;23;20052;-88
2022/01/19 15:40:12;;;;;;;47.45;26.90;;;6.20;99.90;;;4.08;100.00;100988.41;6148169;23;20056;-88
2022/01/19 15:42:40;;;;;;;43.00;24.50;;;6.30;99.90;;;4.09;100.00;100987.38;6196931;23;20021;-88
2022/01/19 15:45:09;;;;;;;42.65;24.63;;;6.20;99.90;;;4.09;100.00;100982.88;6196710;23;20112;-88
2022/01/19 15:47:36;;;;;;;45.55;24.48;;;6.20;99.90;;;4.13;100.00;100994.22;6148025;23;20460;-85
2022/01/19 15:50:09;;;;;;;48.92;26.50;;;6.20;99.90;;;4.00;100.00;100988.16;6148738;23;20030;-86
2022/01/19 15:52:38;;;;;;;49.47;26.80;;;6.20;99.90;;;3.91;100.00;100990.66;6147177;23;20026;-87
2022/01/19 15:55:08;;;;;;;45.38;25.70;;;6.20;99.90;;;3.88;100.00;100999.03;6149628;23;20523;-84
2022/01/19 15:57:35;;;;;;;43.42;25.73;;;6.20;99.90;;;3.86;100.00;100974.03;6149026;23;20033;-85
2022/01/19 16:00:05;;;;;;;41.95;25.95;;;6.20;99.90;;;3.93;100.00;100982.47;6198425;23;20030;-85
2022/01/19 16:02:39;;;;;;;51.70;25.92;;;6.20;99.90;;;3.99;100.00;100976.56;6149068;23;20137;-87
2022/01/19 16:05:10;;;;;;;45.08;26.08;;;6.10;99.90;;;3.92;100.00;100981.63;6150166;23;20115;-88